sensor_id;sensor_type;location;lat;lon;timestamp;P1;durP1;ratioP1;P2;durP2;ratioP2
40815;SDS011;26535;48.788;9.214;2022-11-15T06:01:32;13.45;;;7.20;;
40815;SDS011;26535;48.788;9.214;2022-11-15T06:04:17;20.38;;;13.77;;
40815;SDS011;26535;48.788;9.214;2022-11-15T06:07:02;11.30;;;6.90;;
40815;SDS011;26535;48.788;9.214;2022-11-15T06:09:47;14.02;;;7.20;;
40815;SDS011;26535;48.788;9.214;2022-11-15T06:12:31;10.13;;;6.20;;
40815;SDS011;26535;48.788;9.214;2022-11-15T06:15:15;13.13;;;6.45;;
40815;SDS011;26535;48.788;9.214;2022-11-15T06:17:59;13.07;;;6.85;;
40815;SDS011;26535;48.788;9.214;2022-11-15T06:20:44;12.77;;;6.35;;
40815;SDS011;26535;48.788;9.214;2022-11-15T06:23:31;9.63;;;6.82;;
40815;SDS011;26535;48.788;9.214;2022-11-15T06:26:16;12.32;;;6.22;;
40815;SDS011;26535;48.788;9.214;2022-11-15T06:29:02;12.30;;;7.10;;
40815;SDS011;26535;48.788;9.214;2022-11-15T06:31:46;12.48;;;6.90;;
40815;SDS011;26535;48.788;9.214;2022-11-15T06:34:30;10.25;;;6.88;;
40815;SDS011;26535;48.788;9.214;2022-11-15T06:37:14;11.40;;;6.70;;
40815;SDS011;26535;48.788;9.214;2022-11-15T06:39:59;13.95;;;7.45;;
40815;SDS011;26535;48.788;9.214;2022-11-15T06:42:43;11.82;;;7.05;;
40815;SDS011;26535;48.788;9.214;2022-11-15T06:45:27;11.68;;;7.13;;
40815;SDS011;26535;48.788;9.214;2022-11-15T06:48:11;14.25;;;7.45;;
40815;SDS011;26535;48.788;9.214;2022-11-15T06:50:59;15.35;;;7.30;;
40815;SDS011;26535;48.788;9.214;2022-11-15T06:53:44;11.60;;;7.43;;
40815;SDS011;26535;48.788;9.214;2022-11-15T06:56:29;10.43;;;6.82;;
40815;SDS011;26535;48.788;9.214;2022-11-15T06:59:13;12.02;;;6.93;;
40815;SDS011;26535;48.788;9.214;2022-11-15T07:01:57;10.80;;;6.32;;
40815;SDS011;26535;48.788;9.214;2022-11-15T07:04:41;12.25;;;6.82;;
40815;SDS011;26535;48.788;9.214;2022-11-15T07:07:25;12.75;;;7.22;;
40815;SDS011;26535;48.788;9.214;2022-11-15T07:10:10;10.02;;;5.60;;
40815;SDS011;26535;48.788;9.214;2022-11-15T07:12:54;10.18;;;6.50;;
40815;SDS011;26535;48.788;9.214;2022-11-15T07:15:39;11.70;;;5.90;;
40815;SDS011;26535;48.788;9.214;2022-11-15T07:18:23;10.60;;;5.85;;
40815;SDS011;26535;48.788;9.214;2022-11-15T07:21:08;12.40;;;6.15;;
40815;SDS011;26535;48.788;9.214;2022-11-15T07:23:54;13.27;;;6.10;;
40815;SDS011;26535;48.788;9.214;2022-11-15T07:26:38;10.80;;;6.00;;
40815;SDS011;26535;48.788;9.214;2022-11-15T07:29:23;8.68;;;5.80;;
40815;SDS011;26535;48.788;9.214;2022-11-15T07:32:07;12.15;;;7.32;;
40815;SDS011;26535;48.788;9.214;2022-11-15T07:34:51;12.60;;;6.97;;
40815;SDS011;26535;48.788;9.214;2022-11-15T07:37:34;15.98;;;7.38;;
40815;SDS011;26535;48.788;9.214;2022-11-15T07:40:19;13.30;;;6.60;;
40815;SDS011;26535;48.788;9.214;2022-11-15T07:43:04;14.65;;;6.93;;
40815;SDS011;26535;48.788;9.214;2022-11-15T07:45:50;13.53;;;6.70;;
40815;SDS011;26535;48.788;9.214;2022-11-15T07:48:35;13.98;;;6.53;;
40815;SDS011;26535;48.788;9.214;2022-11-15T07:51:20;13.25;;;6.60;;
40815;SDS011;26535;48.788;9.214;2022-11-15T07:54:05;12.38;;;5.90;;
40815;SDS011;26535;48.788;9.214;2022-11-15T07:56:49;11.32;;;5.75;;
40815;SDS011;26535;48.788;9.214;2022-11-15T07:59:33;10.75;;;5.18;;
40815;SDS011;26535;48.788;9.214;2022-11-15T08:02:18;11.02;;;5.43;;
40815;SDS011;26535;48.788;9.214;2022-11-15T08:05:02;9.80;;;5.15;;
40815;SDS011;26535;48.788;9.214;2022-11-15T08:07:47;12.82;;;5.78;;
40815;SDS011;26535;48.788;9.214;2022-11-15T08:10:32;11.68;;;4.80;;
40815;SDS011;26535;48.788;9.214;2022-11-15T08:13:16;10.82;;;5.43;;
40815;SDS011;26535;48.788;9.214;2022-11-15T08:16:01;11.90;;;5.53;;
40815;SDS011;26535;48.788;9.214;2022-11-15T08:18:48;9.13;;;4.93;;
40815;SDS011;26535;48.788;9.214;2022-11-15T08:21:33;9.27;;;4.72;;
40815;SDS011;26535;48.788;9.214;2022-11-15T08:24:17;13.93;;;5.65;;
40815;SDS011;26535;48.788;9.214;2022-11-15T08:27:01;11.30;;;5.13;;
40815;SDS011;26535;48.788;9.214;2022-11-15T08:29:47;12.27;;;5.50;;
40815;SDS011;26535;48.788;9.214;2022-11-15T08:32:32;11.00;;;4.90;;
40815;SDS011;26535;48.788;9.214;2022-11-15T08:35:16;11.05;;;5.32;;
40815;SDS011;26535;48.788;9.214;2022-11-15T08:38:01;10.90;;;5.07;;
40815;SDS011;26535;48.788;9.214;2022-11-15T08:40:46;11.52;;;5.00;;
40815;SDS011;26535;48.788;9.214;2022-11-15T08:43:30;9.98;;;5.15;;
40815;SDS011;26535;48.788;9.214;2022-11-15T08:46:14;10.98;;;5.80;;
40815;SDS011;26535;48.788;9.214;2022-11-15T08:48:59;12.10;;;5.57;;
40815;SDS011;26535;48.788;9.214;2022-11-15T08:51:43;14.77;;;5.53;;
40815;SDS011;26535;48.788;9.214;2022-11-15T08:54:27;14.23;;;5.47;;
40815;SDS011;26535;48.788;9.214;2022-11-15T08:57:11;12.05;;;5.40;;
40815;SDS011;26535;48.788;9.214;2022-11-15T08:59:56;12.52;;;5.25;;
40815;SDS011;26535;48.788;9.214;2022-11-15T09:02:41;8.93;;;5.28;;
40815;SDS011;26535;48.788;9.214;2022-11-15T09:05:25;9.48;;;4.93;;
40815;SDS011;26535;48.788;9.214;2022-11-15T09:08:09;12.65;;;5.68;;
40815;SDS011;26535;48.788;9.214;2022-11-15T09:10:54;10.40;;;5.53;;
40815;SDS011;26535;48.788;9.214;2022-11-15T09:13:39;11.20;;;5.97;;
40815;SDS011;26535;48.788;9.214;2022-11-15T09:16:23;11.13;;;5.95;;
40815;SDS011;26535;48.788;9.214;2022-11-15T09:19:08;12.60;;;6.10;;
40815;SDS011;26535;48.788;9.214;2022-11-15T09:21:52;10.85;;;5.35;;
40815;SDS011;26535;48.788;9.214;2022-11-15T09:24:37;11.50;;;5.45;;
40815;SDS011;26535;48.788;9.214;2022-11-15T09:27:21;10.02;;;5.00;;
40815;SDS011;26535;48.788;9.214;2022-11-15T09:30:06;9.57;;;5.15;;
40815;SDS011;26535;48.788;9.214;2022-11-15T09:32:50;7.85;;;4.05;;
40815;SDS011;26535;48.788;9.214;2022-11-15T09:35:35;9.40;;;4.22;;
40815;SDS011;26535;48.788;9.214;2022-11-15T09:38:19;7.28;;;3.80;;
40815;SDS011;26535;48.788;9.214;2022-11-15T09:50:08;7.88;;;3.70;;
40815;SDS011;26535;48.788;9.214;2022-11-15T09:52:36;10.20;;;4.07;;
40815;SDS011;26535;48.788;9.214;2022-11-15T09:55:04;6.88;;;3.70;;
40815;SDS011;26535;48.788;9.214;2022-11-15T10:00:47;9.15;;;4.10;;
40815;SDS011;26535;48.788;9.214;2022-11-15T10:03:25;10.63;;;4.18;;
40815;SDS011;26535;48.788;9.214;2022-11-15T10:05:57;8.40;;;3.50;;
40815;SDS011;26535;48.788;9.214;2022-11-15T10:11:11;7.22;;;4.00;;
40815;SDS011;26535;48.788;9.214;2022-11-15T10:13:43;7.72;;;3.90;;
40815;SDS011;26535;48.788;9.214;2022-11-15T10:19:07;7.40;;;3.80;;
40815;SDS011;26535;48.788;9.214;2022-11-15T10:24:37;5.88;;;3.53;;
40815;SDS011;26535;48.788;9.214;2022-11-15T10:27:18;8.57;;;3.13;;
40815;SDS011;26535;48.788;9.214;2022-11-15T10:29:48;8.32;;;3.10;;
40815;SDS011;26535;48.788;9.214;2022-11-15T10:32:17;6.90;;;3.15;;
40815;SDS011;26535;48.788;9.214;2022-11-15T10:34:46;8.35;;;3.67;;
40815;SDS011;26535;48.788;9.214;2022-11-15T10:37:13;7.45;;;3.42;;
40815;SDS011;26535;48.788;9.214;2022-11-15T10:39:38;9.50;;;4.22;;
40815;SDS011;26535;48.788;9.214;2022-11-15T10:47:23;8.75;;;4.07;;
40815;SDS011;26535;48.788;9.214;2022-11-15T10:50:00;9.87;;;4.10;;
40815;SDS011;26535;48.788;9.214;2022-11-15T10:52:32;9.05;;;3.75;;
40815;SDS011;26535;48.788;9.214;2022-11-15T10:55:03;8.05;;;4.00;;
40815;SDS011;26535;48.788;9.214;2022-11-15T10:57:55;10.40;;;4.35;;
40815;SDS011;26535;48.788;9.214;2022-11-15T11:00:39;8.63;;;4.50;;
40815;SDS011;26535;48.788;9.214;2022-11-15T11:03:24;12.07;;;4.72;;
40815;SDS011;26535;48.788;9.214;2022-11-15T11:06:07;11.25;;;4.53;;
40815;SDS011;26535;48.788;9.214;2022-11-15T11:08:58;11.95;;;4.60;;
40815;SDS011;26535;48.788;9.214;2022-11-15T11:11:27;6.18;;;3.78;;
40815;SDS011;26535;48.788;9.214;2022-11-15T11:14:29;9.60;;;4.72;;
40815;SDS011;26535;48.788;9.214;2022-11-15T11:17:02;8.50;;;4.70;;
40815;SDS011;26535;48.788;9.214;2022-11-15T11:33:32;10.35;;;4.85;;
40815;SDS011;26535;48.788;9.214;2022-11-15T11:36:09;9.15;;;4.20;;
40815;SDS011;26535;48.788;9.214;2022-11-15T11:41:55;12.90;;;4.47;;
40815;SDS011;26535;48.788;9.214;2022-11-15T11:47:31;10.82;;;4.50;;
40815;SDS011;26535;48.788;9.214;2022-11-15T11:50:02;11.80;;;5.03;;
40815;SDS011;26535;48.788;9.214;2022-11-15T11:52:43;12.48;;;4.40;;
40815;SDS011;26535;48.788;9.214;2022-11-15T11:55:47;6.70;;;4.35;;
40815;SDS011;26535;48.788;9.214;2022-11-15T12:00:55;10.00;;;4.25;;
40815;SDS011;26535;48.788;9.214;2022-11-15T12:03:52;11.05;;;4.15;;
40815;SDS011;26535;48.788;9.214;2022-11-15T12:06:23;9.20;;;3.40;;
40815;SDS011;26535;48.788;9.214;2022-11-15T12:14:36;6.75;;;3.10;;
40815;SDS011;26535;48.788;9.214;2022-11-15T12:19:40;7.97;;;4.10;;
40815;SDS011;26535;48.788;9.214;2022-11-15T12:22:18;7.38;;;3.85;;
40815;SDS011;26535;48.788;9.214;2022-11-15T12:24:53;7.53;;;4.15;;
40815;SDS011;26535;48.788;9.214;2022-11-15T12:27:37;9.30;;;4.40;;
40815;SDS011;26535;48.788;9.214;2022-11-15T12:30:16;11.02;;;4.32;;
40815;SDS011;26535;48.788;9.214;2022-11-15T12:36:00;8.15;;;3.72;;
40815;SDS011;26535;48.788;9.214;2022-11-15T12:41:38;11.07;;;4.85;;
40815;SDS011;26535;48.788;9.214;2022-11-15T12:44:11;9.30;;;4.70;;
40815;SDS011;26535;48.788;9.214;2022-11-15T13:30:39;8.57;;;3.10;;
40815;SDS011;26535;48.788;9.214;2022-11-15T13:33:14;6.13;;;3.50;;
40815;SDS011;26535;48.788;9.214;2022-11-15T13:36:04;7.60;;;3.50;;
40815;SDS011;26535;48.788;9.214;2022-11-15T13:38:39;8.32;;;3.20;;
40815;SDS011;26535;48.788;9.214;2022-11-15T13:41:22;8.27;;;3.45;;
40815;SDS011;26535;48.788;9.214;2022-11-15T13:43:50;6.25;;;3.50;;
40815;SDS011;26535;48.788;9.214;2022-11-15T13:51:49;6.72;;;3.78;;
40815;SDS011;26535;48.788;9.214;2022-11-15T13:56:54;13.98;;;4.07;;
40815;SDS011;26535;48.788;9.214;2022-11-15T14:01:54;7.53;;;3.33;;
40815;SDS011;26535;48.788;9.214;2022-11-15T14:04:22;7.78;;;3.28;;
40815;SDS011;26535;48.788;9.214;2022-11-15T14:06:49;6.97;;;3.65;;
40815;SDS011;26535;48.788;9.214;2022-11-15T14:09:27;5.90;;;3.13;;
40815;SDS011;26535;48.788;9.214;2022-11-15T14:12:00;6.85;;;3.15;;
40815;SDS011;26535;48.788;9.214;2022-11-15T14:14:28;5.90;;;3.10;;
40815;SDS011;26535;48.788;9.214;2022-11-15T14:16:58;9.15;;;4.50;;
40815;SDS011;26535;48.788;9.214;2022-11-15T14:24:39;7.90;;;3.70;;
40815;SDS011;26535;48.788;9.214;2022-11-15T14:27:15;5.72;;;3.40;;
40815;SDS011;26535;48.788;9.214;2022-11-15T14:29:44;7.32;;;3.40;;
40815;SDS011;26535;48.788;9.214;2022-11-15T14:32:26;6.38;;;3.38;;
40815;SDS011;26535;48.788;9.214;2022-11-15T14:35:00;7.80;;;3.60;;
40815;SDS011;26535;48.788;9.214;2022-11-15T14:37:28;11.95;;;4.40;;
40815;SDS011;26535;48.788;9.214;2022-11-15T14:39:58;10.98;;;5.85;;
40815;SDS011;26535;48.788;9.214;2022-11-15T14:42:23;14.15;;;5.05;;
40815;SDS011;26535;48.788;9.214;2022-11-15T14:44:50;8.43;;;4.88;;
40815;SDS011;26535;48.788;9.214;2022-11-15T14:47:16;9.38;;;4.75;;
40815;SDS011;26535;48.788;9.214;2022-11-15T14:49:42;9.88;;;4.53;;
40815;SDS011;26535;48.788;9.214;2022-11-15T14:52:19;8.48;;;4.72;;
40815;SDS011;26535;48.788;9.214;2022-11-15T14:54:53;7.90;;;4.75;;
40815;SDS011;26535;48.788;9.214;2022-11-15T14:57:23;9.00;;;4.78;;
40815;SDS011;26535;48.788;9.214;2022-11-15T14:59:49;10.13;;;4.90;;
40815;SDS011;26535;48.788;9.214;2022-11-15T15:04:43;7.00;;;4.07;;
40815;SDS011;26535;48.788;9.214;2022-11-15T15:07:08;9.15;;;3.90;;
40815;SDS011;26535;48.788;9.214;2022-11-15T15:09:34;10.52;;;5.95;;
40815;SDS011;26535;48.788;9.214;2022-11-15T15:12:00;8.32;;;4.20;;
40815;SDS011;26535;48.788;9.214;2022-11-15T15:14:25;9.25;;;4.97;;
40815;SDS011;26535;48.788;9.214;2022-11-15T15:16:51;9.13;;;4.32;;
40815;SDS011;26535;48.788;9.214;2022-11-15T15:19:17;6.90;;;3.95;;
40815;SDS011;26535;48.788;9.214;2022-11-15T15:21:43;6.90;;;3.40;;
40815;SDS011;26535;48.788;9.214;2022-11-15T15:24:14;6.55;;;4.60;;
40815;SDS011;26535;48.788;9.214;2022-11-15T15:26:40;9.77;;;4.30;;
40815;SDS011;26535;48.788;9.214;2022-11-15T15:29:06;7.55;;;3.85;;
40815;SDS011;26535;48.788;9.214;2022-11-15T15:31:34;8.20;;;3.95;;
40815;SDS011;26535;48.788;9.214;2022-11-15T15:33:59;7.88;;;3.80;;
40815;SDS011;26535;48.788;9.214;2022-11-15T15:36:25;10.85;;;3.50;;
40815;SDS011;26535;48.788;9.214;2022-11-15T15:38:51;6.85;;;3.45;;
40815;SDS011;26535;48.788;9.214;2022-11-15T15:41:17;9.25;;;3.88;;
40815;SDS011;26535;48.788;9.214;2022-11-15T15:43:46;4.88;;;2.63;;
40815;SDS011;26535;48.788;9.214;2022-11-15T15:46:16;6.88;;;2.67;;
40815;SDS011;26535;48.788;9.214;2022-11-15T15:48:43;6.93;;;2.75;;
40815;SDS011;26535;48.788;9.214;2022-11-15T15:51:10;6.03;;;2.70;;
40815;SDS011;26535;48.788;9.214;2022-11-15T15:53:36;5.50;;;2.53;;
40815;SDS011;26535;48.788;9.214;2022-11-15T15:56:02;6.25;;;2.95;;
40815;SDS011;26535;48.788;9.214;2022-11-15T15:58:29;4.68;;;2.75;;
40815;SDS011;26535;48.788;9.214;2022-11-15T16:00:56;5.47;;;2.30;;
40815;SDS011;26535;48.788;9.214;2022-11-15T16:03:22;6.25;;;2.83;;
40815;SDS011;26535;48.788;9.214;2022-11-15T16:05:49;5.95;;;2.92;;
40815;SDS011;26535;48.788;9.214;2022-11-15T16:08:22;4.97;;;2.67;;
40815;SDS011;26535;48.788;9.214;2022-11-15T16:10:49;8.55;;;2.60;;
40815;SDS011;26535;48.788;9.214;2022-11-15T16:13:15;5.68;;;2.67;;
40815;SDS011;26535;48.788;9.214;2022-11-15T16:15:41;5.95;;;2.85;;
40815;SDS011;26535;48.788;9.214;2022-11-15T16:18:14;6.85;;;2.92;;
40815;SDS011;26535;48.788;9.214;2022-11-15T16:20:45;6.68;;;2.70;;
40815;SDS011;26535;48.788;9.214;2022-11-15T16:23:15;6.60;;;2.70;;
40815;SDS011;26535;48.788;9.214;2022-11-15T16:25:44;5.70;;;3.10;;
40815;SDS011;26535;48.788;9.214;2022-11-15T16:28:19;5.88;;;2.85;;
40815;SDS011;26535;48.788;9.214;2022-11-15T16:31:05;6.43;;;3.13;;
40815;SDS011;26535;48.788;9.214;2022-11-15T16:33:35;5.93;;;2.60;;
40815;SDS011;26535;48.788;9.214;2022-11-15T16:36:02;6.40;;;3.30;;
40815;SDS011;26535;48.788;9.214;2022-11-15T16:38:29;5.97;;;2.90;;
40815;SDS011;26535;48.788;9.214;2022-11-15T16:40:55;5.00;;;2.67;;
40815;SDS011;26535;48.788;9.214;2022-11-15T16:43:21;4.68;;;2.70;;
40815;SDS011;26535;48.788;9.214;2022-11-15T16:45:50;6.45;;;2.92;;
40815;SDS011;26535;48.788;9.214;2022-11-15T16:48:26;9.15;;;3.22;;
40815;SDS011;26535;48.788;9.214;2022-11-15T16:51:15;8.23;;;4.78;;
40815;SDS011;26535;48.788;9.214;2022-11-15T16:53:41;11.13;;;5.18;;
40815;SDS011;26535;48.788;9.214;2022-11-15T16:58:44;9.60;;;4.35;;
40815;SDS011;26535;48.788;9.214;2022-11-15T17:01:15;12.98;;;4.78;;
40815;SDS011;26535;48.788;9.214;2022-11-15T17:03:43;9.60;;;4.95;;
40815;SDS011;26535;48.788;9.214;2022-11-15T17:06:15;6.80;;;4.10;;
40815;SDS011;26535;48.788;9.214;2022-11-15T17:08:42;7.55;;;3.28;;
40815;SDS011;26535;48.788;9.214;2022-11-15T17:11:10;6.93;;;3.45;;
40815;SDS011;26535;48.788;9.214;2022-11-15T17:16:29;5.85;;;3.13;;
40815;SDS011;26535;48.788;9.214;2022-11-15T17:18:54;5.75;;;2.75;;
40815;SDS011;26535;48.788;9.214;2022-11-15T17:21:20;6.53;;;3.15;;
40815;SDS011;26535;48.788;9.214;2022-11-15T17:23:46;6.78;;;3.10;;
40815;SDS011;26535;48.788;9.214;2022-11-15T17:26:16;7.30;;;3.10;;
40815;SDS011;26535;48.788;9.214;2022-11-15T17:28:41;5.82;;;3.22;;
40815;SDS011;26535;48.788;9.214;2022-11-15T17:31:14;6.80;;;3.45;;
40815;SDS011;26535;48.788;9.214;2022-11-15T17:33:40;5.82;;;2.90;;
40815;SDS011;26535;48.788;9.214;2022-11-15T17:36:07;10.20;;;3.85;;
40815;SDS011;26535;48.788;9.214;2022-11-15T17:38:42;6.20;;;3.38;;
40815;SDS011;26535;48.788;9.214;2022-11-15T17:41:14;6.38;;;3.28;;
40815;SDS011;26535;48.788;9.214;2022-11-15T17:43:40;8.55;;;3.90;;
40815;SDS011;26535;48.788;9.214;2022-11-15T17:46:08;7.28;;;3.40;;
40815;SDS011;26535;48.788;9.214;2022-11-15T17:48:36;8.70;;;4.05;;
40815;SDS011;26535;48.788;9.214;2022-11-15T17:51:04;5.07;;;3.00;;
40815;SDS011;26535;48.788;9.214;2022-11-15T17:53:35;6.00;;;3.20;;
40815;SDS011;26535;48.788;9.214;2022-11-15T17:56:06;5.47;;;2.92;;
40815;SDS011;26535;48.788;9.214;2022-11-15T17:58:34;6.78;;;3.30;;
40815;SDS011;26535;48.788;9.214;2022-11-15T18:01:06;4.63;;;2.42;;
40815;SDS011;26535;48.788;9.214;2022-11-15T18:03:37;5.50;;;2.90;;
40815;SDS011;26535;48.788;9.214;2022-11-15T18:06:03;4.75;;;2.25;;
40815;SDS011;26535;48.788;9.214;2022-11-15T18:08:30;5.40;;;3.20;;
40815;SDS011;26535;48.788;9.214;2022-11-15T18:11:04;5.35;;;2.70;;
40815;SDS011;26535;48.788;9.214;2022-11-15T18:13:52;5.60;;;2.97;;
40815;SDS011;26535;48.788;9.214;2022-11-15T18:16:20;4.85;;;2.67;;
40815;SDS011;26535;48.788;9.214;2022-11-15T18:18:49;6.50;;;2.92;;
40815;SDS011;26535;48.788;9.214;2022-11-15T18:23:45;4.53;;;3.10;;
40815;SDS011;26535;48.788;9.214;2022-11-15T18:26:12;6.22;;;3.30;;
40815;SDS011;26535;48.788;9.214;2022-11-15T18:28:42;6.43;;;3.63;;
40815;SDS011;26535;48.788;9.214;2022-11-15T18:31:14;5.68;;;3.35;;
40815;SDS011;26535;48.788;9.214;2022-11-15T18:33:40;7.25;;;3.65;;
40815;SDS011;26535;48.788;9.214;2022-11-15T18:36:07;11.52;;;3.75;;
40815;SDS011;26535;48.788;9.214;2022-11-15T18:38:35;8.38;;;3.83;;
40815;SDS011;26535;48.788;9.214;2022-11-15T18:41:05;8.63;;;3.78;;
40815;SDS011;26535;48.788;9.214;2022-11-15T18:43:37;11.48;;;4.78;;
40815;SDS011;26535;48.788;9.214;2022-11-15T18:46:05;6.72;;;3.70;;
40815;SDS011;26535;48.788;9.214;2022-11-15T18:48:33;8.88;;;4.28;;
40815;SDS011;26535;48.788;9.214;2022-11-15T18:51:07;12.05;;;6.13;;
40815;SDS011;26535;48.788;9.214;2022-11-15T18:53:35;8.45;;;4.63;;
40815;SDS011;26535;48.788;9.214;2022-11-15T18:56:14;8.82;;;4.00;;
40815;SDS011;26535;48.788;9.214;2022-11-15T18:58:45;9.32;;;5.63;;
40815;SDS011;26535;48.788;9.214;2022-11-15T19:01:16;8.75;;;4.20;;
40815;SDS011;26535;48.788;9.214;2022-11-15T19:03:48;9.55;;;4.47;;
40815;SDS011;26535;48.788;9.214;2022-11-15T19:06:17;9.10;;;5.00;;
40815;SDS011;26535;48.788;9.214;2022-11-15T19:08:44;9.90;;;4.78;;
40815;SDS011;26535;48.788;9.214;2022-11-15T19:11:15;9.88;;;5.88;;
40815;SDS011;26535;48.788;9.214;2022-11-15T19:13:51;8.50;;;5.18;;
40815;SDS011;26535;48.788;9.214;2022-11-15T19:16:20;9.70;;;5.50;;
40815;SDS011;26535;48.788;9.214;2022-11-15T19:18:45;8.20;;;4.85;;
40815;SDS011;26535;48.788;9.214;2022-11-15T19:21:12;12.07;;;5.03;;
40815;SDS011;26535;48.788;9.214;2022-11-15T19:23:39;8.88;;;4.80;;
40815;SDS011;26535;48.788;9.214;2022-11-15T19:26:08;10.17;;;5.17;;
40815;SDS011;26535;48.788;9.214;2022-11-15T19:28:38;8.95;;;5.00;;
40815;SDS011;26535;48.788;9.214;2022-11-15T19:31:05;9.07;;;5.20;;
40815;SDS011;26535;48.788;9.214;2022-11-15T19:33:33;9.63;;;5.82;;
40815;SDS011;26535;48.788;9.214;2022-11-15T19:36:00;9.20;;;5.22;;
40815;SDS011;26535;48.788;9.214;2022-11-15T19:38:27;9.90;;;5.82;;
40815;SDS011;26535;48.788;9.214;2022-11-15T19:40:58;9.75;;;5.45;;
40815;SDS011;26535;48.788;9.214;2022-11-15T19:43:29;9.70;;;5.88;;
40815;SDS011;26535;48.788;9.214;2022-11-15T19:45:56;13.00;;;5.80;;
40815;SDS011;26535;48.788;9.214;2022-11-15T19:48:26;12.77;;;5.90;;
40815;SDS011;26535;48.788;9.214;2022-11-15T19:50:52;10.90;;;6.03;;
40815;SDS011;26535;48.788;9.214;2022-11-15T19:53:18;14.05;;;7.38;;
40815;SDS011;26535;48.788;9.214;2022-11-15T19:56:01;11.98;;;6.50;;
40815;SDS011;26535;48.788;9.214;2022-11-15T19:58:28;11.82;;;6.00;;
40815;SDS011;26535;48.788;9.214;2022-11-15T20:01:05;11.35;;;6.28;;
40815;SDS011;26535;48.788;9.214;2022-11-15T20:03:32;15.43;;;7.20;;
40815;SDS011;26535;48.788;9.214;2022-11-15T20:06:02;9.68;;;5.90;;
40815;SDS011;26535;48.788;9.214;2022-11-15T20:08:29;13.00;;;6.68;;
40815;SDS011;26535;48.788;9.214;2022-11-15T20:10:56;18.77;;;8.68;;
40815;SDS011;26535;48.788;9.214;2022-11-15T20:13:22;9.95;;;7.00;;
40815;SDS011;26535;48.788;9.214;2022-11-15T20:15:48;11.65;;;7.65;;
40815;SDS011;26535;48.788;9.214;2022-11-15T20:18:14;11.70;;;7.15;;
40815;SDS011;26535;48.788;9.214;2022-11-15T20:20:40;12.93;;;6.75;;
40815;SDS011;26535;48.788;9.214;2022-11-15T20:23:07;13.10;;;6.65;;
40815;SDS011;26535;48.788;9.214;2022-11-15T20:25:33;11.57;;;5.90;;
40815;SDS011;26535;48.788;9.214;2022-11-15T20:28:02;11.95;;;6.60;;
40815;SDS011;26535;48.788;9.214;2022-11-15T20:30:30;9.98;;;5.97;;
40815;SDS011;26535;48.788;9.214;2022-11-15T20:32:56;11.30;;;6.28;;
40815;SDS011;26535;48.788;9.214;2022-11-15T20:35:22;13.07;;;6.22;;
40815;SDS011;26535;48.788;9.214;2022-11-15T20:37:48;12.35;;;7.93;;
40815;SDS011;26535;48.788;9.214;2022-11-15T20:40:13;11.98;;;7.47;;
40815;SDS011;26535;48.788;9.214;2022-11-15T20:42:42;12.32;;;6.53;;
40815;SDS011;26535;48.788;9.214;2022-11-15T20:45:08;9.80;;;6.35;;
40815;SDS011;26535;48.788;9.214;2022-11-15T20:47:33;12.93;;;6.60;;
40815;SDS011;26535;48.788;9.214;2022-11-15T20:49:59;9.55;;;7.13;;
40815;SDS011;26535;48.788;9.214;2022-11-15T20:52:25;11.43;;;6.93;;
40815;SDS011;26535;48.788;9.214;2022-11-15T20:54:51;11.75;;;7.57;;
40815;SDS011;26535;48.788;9.214;2022-11-15T20:57:17;13.35;;;7.60;;
40815;SDS011;26535;48.788;9.214;2022-11-15T20:59:42;15.23;;;7.13;;
40815;SDS011;26535;48.788;9.214;2022-11-15T21:02:14;13.38;;;7.65;;
40815;SDS011;26535;48.788;9.214;2022-11-15T21:04:42;14.48;;;8.90;;
40815;SDS011;26535;48.788;9.214;2022-11-15T21:07:09;15.88;;;9.00;;
40815;SDS011;26535;48.788;9.214;2022-11-15T21:09:34;14.85;;;8.95;;
40815;SDS011;26535;48.788;9.214;2022-11-15T21:12:20;14.35;;;8.40;;
40815;SDS011;26535;48.788;9.214;2022-11-15T21:14:45;13.65;;;9.57;;
40815;SDS011;26535;48.788;9.214;2022-11-15T21:17:13;16.17;;;9.20;;
40815;SDS011;26535;48.788;9.214;2022-11-15T21:19:40;14.98;;;8.60;;
40815;SDS011;26535;48.788;9.214;2022-11-15T21:22:07;14.48;;;8.82;;
40815;SDS011;26535;48.788;9.214;2022-11-15T21:24:34;12.52;;;7.82;;
40815;SDS011;26535;48.788;9.214;2022-11-15T21:26:59;12.25;;;8.23;;
40815;SDS011;26535;48.788;9.214;2022-11-15T21:29:25;12.45;;;7.97;;
40815;SDS011;26535;48.788;9.214;2022-11-15T21:31:52;12.98;;;8.18;;
40815;SDS011;26535;48.788;9.214;2022-11-15T21:34:18;11.32;;;7.32;;
40815;SDS011;26535;48.788;9.214;2022-11-15T21:36:44;13.80;;;7.85;;
40815;SDS011;26535;48.788;9.214;2022-11-15T21:39:10;13.85;;;8.50;;
40815;SDS011;26535;48.788;9.214;2022-11-15T21:41:36;11.38;;;7.68;;
40815;SDS011;26535;48.788;9.214;2022-11-15T21:44:02;11.98;;;7.88;;
40815;SDS011;26535;48.788;9.214;2022-11-15T21:46:35;13.75;;;7.45;;
40815;SDS011;26535;48.788;9.214;2022-11-15T21:49:01;13.93;;;8.15;;
40815;SDS011;26535;48.788;9.214;2022-11-15T21:51:29;13.82;;;7.40;;
40815;SDS011;26535;48.788;9.214;2022-11-15T21:53:58;13.23;;;7.47;;
40815;SDS011;26535;48.788;9.214;2022-11-15T21:56:27;15.48;;;8.93;;
40815;SDS011;26535;48.788;9.214;2022-11-15T21:58:53;18.70;;;11.18;;
40815;SDS011;26535;48.788;9.214;2022-11-15T22:01:20;16.08;;;7.78;;
40815;SDS011;26535;48.788;9.214;2022-11-15T22:04:06;13.80;;;7.70;;
40815;SDS011;26535;48.788;9.214;2022-11-15T22:06:33;11.10;;;6.50;;
40815;SDS011;26535;48.788;9.214;2022-11-15T22:09:02;17.58;;;9.35;;
40815;SDS011;26535;48.788;9.214;2022-11-15T22:11:30;13.70;;;6.97;;
40815;SDS011;26535;48.788;9.214;2022-11-15T22:13:55;13.43;;;7.65;;
40815;SDS011;26535;48.788;9.214;2022-11-15T22:16:21;14.70;;;7.88;;
40815;SDS011;26535;48.788;9.214;2022-11-15T22:18:47;14.05;;;8.00;;
40815;SDS011;26535;48.788;9.214;2022-11-15T22:21:14;16.90;;;9.85;;
40815;SDS011;26535;48.788;9.214;2022-11-15T22:23:41;12.40;;;8.03;;
40815;SDS011;26535;48.788;9.214;2022-11-15T22:26:11;10.55;;;6.20;;
40815;SDS011;26535;48.788;9.214;2022-11-15T22:28:39;12.23;;;7.20;;
40815;SDS011;26535;48.788;9.214;2022-11-15T22:31:05;13.07;;;7.03;;
40815;SDS011;26535;48.788;9.214;2022-11-15T22:33:31;11.65;;;6.53;;
40815;SDS011;26535;48.788;9.214;2022-11-15T22:35:58;10.75;;;6.35;;
40815;SDS011;26535;48.788;9.214;2022-11-15T22:38:24;12.13;;;7.10;;
40815;SDS011;26535;48.788;9.214;2022-11-15T22:40:51;14.27;;;7.93;;
40815;SDS011;26535;48.788;9.214;2022-11-15T22:43:18;11.27;;;7.18;;
40815;SDS011;26535;48.788;9.214;2022-11-15T22:45:45;14.10;;;7.57;;
40815;SDS011;26535;48.788;9.214;2022-11-15T22:48:22;15.48;;;8.25;;
40815;SDS011;26535;48.788;9.214;2022-11-15T22:50:52;14.43;;;7.60;;
40815;SDS011;26535;48.788;9.214;2022-11-15T22:53:19;13.48;;;7.53;;
40815;SDS011;26535;48.788;9.214;2022-11-15T22:55:52;12.25;;;8.15;;
40815;SDS011;26535;48.788;9.214;2022-11-15T22:58:20;14.55;;;8.10;;
40815;SDS011;26535;48.788;9.214;2022-11-15T23:00:48;12.65;;;8.18;;
40815;SDS011;26535;48.788;9.214;2022-11-15T23:03:15;11.35;;;6.40;;
40815;SDS011;26535;48.788;9.214;2022-11-15T23:05:41;11.63;;;7.00;;
40815;SDS011;26535;48.788;9.214;2022-11-15T23:08:07;8.40;;;5.18;;
40815;SDS011;26535;48.788;9.214;2022-11-15T23:10:32;9.00;;;4.22;;
40815;SDS011;26535;48.788;9.214;2022-11-15T23:13:19;7.25;;;4.45;;
40815;SDS011;26535;48.788;9.214;2022-11-15T23:15:49;10.60;;;5.35;;
40815;SDS011;26535;48.788;9.214;2022-11-15T23:18:35;11.30;;;6.13;;
40815;SDS011;26535;48.788;9.214;2022-11-15T23:21:13;11.13;;;7.15;;
40815;SDS011;26535;48.788;9.214;2022-11-15T23:24:01;11.30;;;6.47;;
40815;SDS011;26535;48.788;9.214;2022-11-15T23:26:27;11.43;;;6.40;;
40815;SDS011;26535;48.788;9.214;2022-11-15T23:28:52;9.20;;;6.35;;
40815;SDS011;26535;48.788;9.214;2022-11-15T23:31:18;10.82;;;6.47;;